Time;durP1;ratioP1;P1;durP2;ratioP2;P2;SDS_P1;SDS_P2;PMS_P1;PMS_P2;Temp;Humidity;BMP_temperature;BMP_pressure;BME280_temperature;BME280_humidity;BME280_pressure;Samples;Min_cycle;Max_cycle;Signal;HPM_P1;HPM_P2
2022/03/02 00:00:52;;;;;;;36.20;20.13;;;4.80;99.90;;;;;;4790250;29;20119;-79
2022/03/02 00:03:17;;;;;;;40.10;20.73;;;4.80;99.90;;;;;;4806066;29;20150;-76
2022/03/02 00:05:43;;;;;;;31.45;19.10;;;4.80;99.90;;;;;;4806703;29;20188;-79
2022/03/02 00:08:09;;;;;;;36.72;20.75;;;4.80;99.90;;;;;;4806752;29;20039;-76
2022/03/02 00:10:34;;;;;;;37.88;19.90;;;4.70;99.90;;;;;;4806326;29;20503;-77
2022/03/02 00:13:00;;;;;;;35.10;19.15;;;4.70;99.90;;;;;;4806198;29;20054;-76
2022/03/02 00:15:26;;;;;;;38.13;21.75;;;4.80;99.90;;;;;;4806296;29;20472;-79
2022/03/02 00:17:52;;;;;;;38.45;21.52;;;4.70;99.90;;;;;;4789972;29;20069;-82
2022/03/02 00:20:18;;;;;;;37.10;20.95;;;4.70;99.90;;;;;;4806281;29;20125;-76
2022/03/02 00:22:44;;;;;;;35.72;20.48;;;4.70;99.90;;;;;;4806386;29;20134;-77
2022/03/02 00:25:11;;;;;;;35.40;21.15;;;4.70;99.90;;;;;;4790255;29;20058;-81
2022/03/02 00:27:37;;;;;;;40.90;20.55;;;4.70;99.90;;;;;;4789791;29;20480;-75
2022/03/02 00:30:05;;;;;;;35.85;20.30;;;4.70;99.90;;;;;;4806476;29;20047;-80
2022/03/02 00:32:31;;;;;;;35.80;20.65;;;4.70;99.90;;;;;;4806192;29;20086;-77
2022/03/02 00:34:56;;;;;;;42.33;21.98;;;4.70;99.90;;;;;;4806066;29;20079;-86
2022/03/02 00:37:22;;;;;;;41.83;22.40;;;4.70;99.90;;;;;;4806224;29;20062;-79
2022/03/02 00:39:48;;;;;;;37.53;21.42;;;4.70;99.90;;;;;;4789466;29;20415;-76
2022/03/02 00:42:13;;;;;;;38.03;21.75;;;4.70;99.90;;;;;;4789701;29;20129;-77
2022/03/02 00:44:39;;;;;;;37.80;21.98;;;4.60;99.90;;;;;;4806003;29;20411;-75
2022/03/02 00:47:06;;;;;;;36.65;21.13;;;4.60;99.90;;;;;;4789990;29;20070;-76
2022/03/02 00:49:33;;;;;;;36.25;21.30;;;4.60;99.90;;;;;;4805936;29;20055;-78
2022/03/02 00:52:00;;;;;;;44.10;22.83;;;4.60;99.90;;;;;;4805854;29;20057;-80
2022/03/02 00:54:25;;;;;;;36.47;21.73;;;4.60;99.90;;;;;;4806024;29;20055;-75
2022/03/02 00:56:51;;;;;;;40.30;24.13;;;4.50;99.90;;;;;;4806312;29;20131;-81
2022/03/02 00:59:17;;;;;;;38.88;22.92;;;4.60;99.90;;;;;;4807450;29;20069;-78
2022/03/02 01:01:43;;;;;;;39.88;21.80;;;4.60;99.90;;;;;;4808026;29;20054;-77
2022/03/02 01:04:09;;;;;;;38.10;21.52;;;4.60;99.90;;;;;;4805917;29;20060;-76
2022/03/02 01:06:35;;;;;;;41.53;23.73;;;4.60;99.90;;;;;;4806065;29;20573;-78
2022/03/02 01:09:02;;;;;;;37.40;21.30;;;5.00;99.90;;;;;;4806267;29;20049;-77
2022/03/02 01:11:27;;;;;;;38.33;20.38;;;4.50;99.90;;;;;;4806339;29;20058;-76
2022/03/02 01:13:53;;;;;;;38.65;19.63;;;4.50;99.90;;;;;;4792145;29;20124;-77
2022/03/02 01:16:19;;;;;;;35.92;20.02;;;4.50;99.90;;;;;;4809806;29;20395;-81
2022/03/02 01:18:45;;;;;;;40.35;20.42;;;4.50;99.90;;;;;;4806369;29;20067;-78
2022/03/02 01:21:11;;;;;;;45.05;21.80;;;5.00;99.90;;;;;;4806139;29;20566;-77
2022/03/02 01:23:37;;;;;;;40.15;20.80;;;4.50;99.90;;;;;;4805758;29;20055;-76
2022/03/02 01:26:04;;;;;;;40.47;21.60;;;4.50;99.90;;;;;;4806359;29;20058;-84
2022/03/02 01:28:30;;;;;;;44.53;25.20;;;4.50;99.90;;;;;;4808446;29;20566;-88
2022/03/02 01:30:56;;;;;;;43.50;24.35;;;4.50;99.90;;;;;;4790409;29;20046;-86
2022/03/02 01:33:22;;;;;;;40.63;21.45;;;4.50;99.90;;;;;;4789988;29;20093;-82
2022/03/02 01:35:48;;;;;;;43.85;22.23;;;4.40;99.90;;;;;;4805485;29;20047;-84
2022/03/02 01:38:14;;;;;;;39.60;21.05;;;4.40;99.90;;;;;;4806065;29;20057;-89
2022/03/02 01:40:40;;;;;;;41.10;20.35;;;4.40;99.90;;;;;;4805702;29;20047;-87
2022/03/02 01:43:15;;;;;;;44.72;23.55;;;4.50;99.90;;;;;;4805784;29;20070;-85
2022/03/02 01:45:41;;;;;;;41.58;20.65;;;4.30;99.90;;;;;;4789048;29;20065;-85
2022/03/02 01:48:06;;;;;;;45.05;21.73;;;4.30;99.90;;;;;;4805368;29;20131;-83
2022/03/02 01:50:32;;;;;;;40.13;20.80;;;5.20;99.90;;;;;;4789331;29;20050;-86
2022/03/02 01:52:58;;;;;;;41.20;21.25;;;4.30;99.90;;;;;;4805598;29;20411;-88
2022/03/02 01:55:24;;;;;;;37.35;20.38;;;4.30;99.90;;;;;;4805466;29;20135;-88
2022/03/02 01:57:50;;;;;;;39.92;18.52;;;4.30;99.90;;;;;;4805470;29;20560;-88
2022/03/02 02:00:20;;;;;;;40.58;20.33;;;4.30;99.90;;;;;;4812347;29;20114;-76
2022/03/02 02:02:47;;;;;;;47.28;21.50;;;4.30;99.90;;;;;;4815226;29;20062;-86
2022/03/02 02:05:13;;;;;;;42.58;22.60;;;4.40;99.90;;;;;;4802139;29;20051;-86
2022/03/02 02:07:38;;;;;;;44.08;21.63;;;4.30;99.90;;;;;;4819212;29;20054;-87
2022/03/02 02:10:06;;;;;;;42.58;20.70;;;4.30;99.90;;;;;;4813970;29;20055;-74
2022/03/02 02:12:32;;;;;;;43.05;20.67;;;4.30;99.90;;;;;;4831115;29;20076;-78
2022/03/02 02:14:59;;;;;;;37.50;19.88;;;4.30;99.90;;;;;;4830841;29;20079;-85
2022/03/02 02:17:25;;;;;;;40.22;21.08;;;4.30;99.90;;;;;;4815024;29;20030;-83
2022/03/02 02:19:52;;;;;;;37.72;21.02;;;4.30;99.90;;;;;;4813147;29;20153;-83
2022/03/02 02:22:18;;;;;;;40.55;20.85;;;4.30;99.90;;;;;;4810377;29;20435;-87
2022/03/02 02:24:44;;;;;;;37.60;20.88;;;4.30;99.90;;;;;;4809127;29;20141;-86
2022/03/02 02:27:11;;;;;;;40.47;22.05;;;4.30;99.90;;;;;;4808872;29;20043;-88
2022/03/02 02:29:38;;;;;;;42.22;21.90;;;4.30;99.90;;;;;;4807667;29;20073;-89
2022/03/02 02:32:04;;;;;;;40.50;23.75;;;4.30;99.90;;;;;;4794124;29;20063;-87
2022/03/02 02:34:30;;;;;;;38.25;19.67;;;4.30;99.90;;;;;;4812304;29;20043;-88
2022/03/02 02:36:57;;;;;;;39.70;21.35;;;4.90;99.90;;;;;;4809997;29;20526;-79
2022/03/02 02:39:29;;;;;;;40.17;20.38;;;4.30;99.90;;;;;;4808674;29;20485;-85
2022/03/02 02:42:03;;;;;;;40.83;21.47;;;4.30;99.90;;;;;;4808364;29;20095;-79
2022/03/02 02:44:29;;;;;;;41.78;19.83;;;4.80;99.90;;;;;;4808182;29;20047;-86
2022/03/02 02:46:55;;;;;;;39.35;18.95;;;4.30;99.90;;;;;;4807822;29;20555;-80
2022/03/02 02:49:20;;;;;;;41.83;19.98;;;4.30;99.90;;;;;;4791596;29;20061;-83
2022/03/02 02:51:46;;;;;;;37.83;19.02;;;4.30;99.90;;;;;;4809920;29;20051;-83
2022/03/02 02:54:12;;;;;;;37.22;18.15;;;4.30;99.90;;;;;;4791985;29;20390;-75
2022/03/02 02:56:37;;;;;;;37.25;18.27;;;4.30;99.90;;;;;;4807954;29;20050;-77
2022/03/02 02:59:03;;;;;;;43.80;19.98;;;4.30;99.90;;;;;;4807785;29;20062;-76
2022/03/02 03:01:29;;;;;;;39.22;19.77;;;4.30;99.90;;;;;;4790732;29;20062;-76
2022/03/02 03:03:55;;;;;;;36.47;18.45;;;5.00;99.90;;;;;;4807442;29;20094;-76
2022/03/02 03:06:21;;;;;;;39.75;19.00;;;4.30;99.90;;;;;;4807662;29;20088;-77
2022/03/02 03:08:46;;;;;;;36.13;18.98;;;4.20;99.90;;;;;;4807944;29;20078;-73
2022/03/02 03:11:12;;;;;;;36.03;19.05;;;4.20;99.90;;;;;;4807414;29;20444;-75
2022/03/02 03:13:38;;;;;;;36.45;19.25;;;4.30;99.90;;;;;;4807436;29;20183;-75
2022/03/02 03:16:03;;;;;;;36.53;18.77;;;4.20;99.90;;;;;;4806836;29;20070;-74
2022/03/02 03:18:29;;;;;;;42.83;19.90;;;4.20;99.90;;;;;;4807442;29;20054;-75
2022/03/02 03:20:55;;;;;;;37.40;20.05;;;4.10;99.90;;;;;;4791110;29;20092;-76
2022/03/02 03:23:21;;;;;;;37.05;19.38;;;4.10;99.90;;;;;;4790839;29;20066;-76
2022/03/02 03:25:47;;;;;;;39.95;19.05;;;4.10;99.90;;;;;;4807301;29;20077;-74
2022/03/02 03:28:12;;;;;;;37.80;18.65;;;4.10;99.90;;;;;;4807182;29;20100;-75
2022/03/02 03:30:38;;;;;;;37.03;19.35;;;4.10;99.90;;;;;;4807180;29;20050;-76
2022/03/02 03:33:04;;;;;;;39.28;20.20;;;4.00;99.90;;;;;;4806800;29;20092;-75
2022/03/02 03:35:31;;;;;;;43.55;20.90;;;4.00;99.90;;;;;;4806959;29;20126;-75
2022/03/02 03:37:56;;;;;;;37.88;18.63;;;4.00;99.90;;;;;;4807215;29;20046;-75
2022/03/02 03:40:23;;;;;;;37.20;19.60;;;4.00;99.90;;;;;;4807107;29;20107;-76
2022/03/02 03:42:51;;;;;;;39.15;20.27;;;4.00;99.90;;;;;;4806742;29;20568;-77
2022/03/02 03:45:17;;;;;;;36.60;19.05;;;4.00;99.90;;;;;;4790798;29;20058;-75
2022/03/02 03:47:43;;;;;;;37.10;18.80;;;4.20;99.90;;;;;;4806777;29;20058;-76
2022/03/02 03:50:10;;;;;;;40.95;20.42;;;4.00;99.90;;;;;;4806656;29;20051;-76
2022/03/02 03:52:36;;;;;;;40.58;20.77;;;4.00;99.90;;;;;;4806642;29;20115;-77
2022/03/02 03:55:03;;;;;;;39.78;21.25;;;4.00;99.90;;;;;;4806842;29;20454;-75
2022/03/02 03:57:29;;;;;;;35.97;19.42;;;4.00;99.90;;;;;;4806479;29;20054;-75
2022/03/02 03:59:55;;;;;;;37.45;19.20;;;4.00;99.90;;;;;;4806846;29;20050;-76
2022/03/02 04:02:20;;;;;;;36.67;19.05;;;4.00;99.90;;;;;;4790119;29;20386;-76
2022/03/02 04:04:46;;;;;;;40.08;19.70;;;3.90;99.90;;;;;;4806461;29;20057;-75
2022/03/02 04:07:12;;;;;;;38.72;20.52;;;3.90;99.90;;;;;;4806487;29;20055;-77
2022/03/02 04:09:37;;;;;;;40.72;19.35;;;3.80;99.90;;;;;;4789998;29;20120;-76
2022/03/02 04:12:04;;;;;;;39.35;19.13;;;3.80;99.90;;;;;;4806545;29;20053;-76
2022/03/02 04:14:29;;;;;;;38.40;19.00;;;3.80;99.90;;;;;;4806543;29;20054;-76
2022/03/02 04:16:55;;;;;;;39.42;19.55;;;3.80;99.90;;;;;;4806244;29;20055;-75
2022/03/02 04:19:21;;;;;;;36.83;19.55;;;3.80;99.90;;;;;;4806108;29;20416;-75
2022/03/02 04:21:46;;;;;;;35.90;19.10;;;3.70;99.90;;;;;;4790370;29;20407;-75
2022/03/02 04:24:12;;;;;;;39.08;19.60;;;3.70;99.90;;;;;;4805897;29;20051;-75
2022/03/02 04:26:37;;;;;;;39.13;20.60;;;3.60;99.90;;;;;;4805381;29;20054;-76
2022/03/02 04:29:03;;;;;;;47.67;22.23;;;3.50;99.90;;;;;;4806312;29;20051;-78
2022/03/02 04:31:29;;;;;;;40.53;20.38;;;3.50;99.90;;;;;;4806040;29;20089;-75
2022/03/02 04:33:54;;;;;;;42.92;20.08;;;3.40;99.90;;;;;;4805846;29;20051;-77
2022/03/02 04:36:20;;;;;;;41.67;20.42;;;4.10;99.90;;;;;;4805881;29;20038;-76
2022/03/02 04:38:45;;;;;;;41.85;20.70;;;3.30;99.90;;;;;;4806033;29;20119;-75
2022/03/02 04:41:11;;;;;;;43.00;22.17;;;3.20;99.90;;;;;;4806074;29;20046;-77
2022/03/02 04:43:37;;;;;;;42.00;20.75;;;3.10;99.90;;;;;;4806042;29;20411;-79
2022/03/02 04:46:03;;;;;;;43.33;20.17;;;3.10;99.90;;;;;;4806041;29;20047;-74
2022/03/02 04:48:29;;;;;;;41.50;20.45;;;3.00;99.90;;;;;;4805758;29;20046;-87
2022/03/02 04:50:56;;;;;;;45.00;22.42;;;2.90;99.90;;;;;;4805792;29;20054;-76
2022/03/02 04:53:23;;;;;;;39.78;21.52;;;2.80;99.90;;;;;;4805590;29;20171;-88
2022/03/02 04:55:50;;;;;;;41.60;21.42;;;2.80;99.90;;;;;;4805847;29;20571;-84
2022/03/02 04:58:16;;;;;;;41.75;21.27;;;2.70;99.90;;;;;;4806169;29;20058;-86
2022/03/02 05:00:42;;;;;;;40.00;19.88;;;2.70;99.90;;;;;;4805976;29;20205;-86
2022/03/02 05:03:08;;;;;;;43.58;20.27;;;2.60;99.90;;;;;;4805919;29;20510;-88
2022/03/02 05:05:38;;;;;;;38.85;19.63;;;2.50;99.90;;;;;;4805624;29;20058;-87
2022/03/02 05:08:05;;;;;;;42.80;20.15;;;2.50;99.90;;;;;;4806178;29;20138;-88
2022/03/02 05:10:31;;;;;;;42.33;20.15;;;2.40;99.90;;;;;;4805813;29;20051;-88
2022/03/02 05:12:56;;;;;;;43.58;19.92;;;3.20;99.90;;;;;;4805827;29;20062;-87
2022/03/02 05:15:23;;;;;;;40.13;19.17;;;2.40;99.90;;;;;;4805707;29;20053;-86
2022/03/02 05:17:49;;;;;;;39.05;18.50;;;2.90;99.90;;;;;;4805921;29;20047;-88
2022/03/02 05:20:16;;;;;;;38.50;19.23;;;2.50;99.90;;;;;;4805446;29;20598;-88
2022/03/02 05:22:42;;;;;;;39.17;18.63;;;2.20;99.90;;;;;;4805275;29;20154;-90
2022/03/02 05:25:09;;;;;;;38.08;18.10;;;2.20;99.90;;;;;;4789273;29;20154;-86
2022/03/02 05:27:35;;;;;;;38.67;18.42;;;2.10;99.90;;;;;;4805621;29;20047;-88
2022/03/02 05:30:03;;;;;;;35.47;17.80;;;2.10;99.90;;;;;;4789599;29;20508;-89
2022/03/02 05:32:28;;;;;;;40.47;19.42;;;2.00;99.90;;;;;;4789190;29;20062;-84
2022/03/02 05:34:54;;;;;;;40.83;19.95;;;2.00;99.90;;;;;;4805125;29;20385;-86
2022/03/02 05:37:20;;;;;;;40.80;19.10;;;1.90;99.90;;;;;;4805561;29;20051;-83
2022/03/02 05:39:46;;;;;;;37.95;17.88;;;1.90;99.90;;;;;;4792297;29;20063;-87
2022/03/02 05:42:11;;;;;;;37.17;19.20;;;1.90;99.90;;;;;;4808871;29;20058;-84
2022/03/02 05:44:37;;;;;;;39.88;18.52;;;1.80;99.90;;;;;;4792935;29;20133;-89
2022/03/02 05:47:04;;;;;;;37.00;17.50;;;1.70;99.90;;;;;;4792725;29;20047;-89
2022/03/02 05:49:30;;;;;;;41.65;19.27;;;1.70;99.90;;;;;;4808703;29;20078;-86
2022/03/02 05:51:55;;;;;;;36.92;19.58;;;1.70;99.90;;;;;;4776989;29;20105;-88
2022/03/02 05:54:21;;;;;;;40.95;18.90;;;1.60;99.90;;;;;;4792282;29;20063;-88
2022/03/02 05:56:47;;;;;;;36.65;18.08;;;1.60;99.90;;;;;;4792908;29;20050;-88
2022/03/02 05:59:14;;;;;;;40.17;18.25;;;1.60;99.90;;;;;;4792679;29;20150;-88
2022/03/02 06:01:41;;;;;;;40.10;18.65;;;1.60;99.90;;;;;;4808824;29;20086;-89
2022/03/02 06:04:08;;;;;;;20.05;8.65;;;1.60;99.90;;;;;;4808635;29;20130;-81
2022/03/02 06:06:35;;;;;;;22.05;9.30;;;1.60;99.90;;;;;;4792014;29;20055;-83
2022/03/02 06:09:03;;;;;;;18.70;8.50;;;2.10;99.90;;;;;;4808624;29;20051;-80
2022/03/02 06:11:29;;;;;;;24.75;10.60;;;1.70;99.90;;;;;;4808576;29;20054;-77
2022/03/02 06:13:56;;;;;;;20.42;10.30;;;1.40;99.90;;;;;;4808524;29;20055;-85
2022/03/02 06:16:22;;;;;;;21.50;9.27;;;2.10;99.90;;;;;;4776789;29;20065;-84
2022/03/02 06:18:48;;;;;;;22.80;9.13;;;1.30;99.90;;;;;;4808632;29;20042;-81
2022/03/02 06:21:17;;;;;;;21.90;8.32;;;1.30;99.90;;;;;;4807956;29;20130;-76
2022/03/02 06:23:43;;;;;;;18.55;7.70;;;1.30;99.90;;;;;;4807940;29;20151;-77
2022/03/02 06:26:09;;;;;;;24.65;9.25;;;1.30;99.90;;;;;;4808234;29;20112;-76
2022/03/02 06:28:35;;;;;;;16.75;7.65;;;1.30;99.90;;;;;;4791995;29;20047;-76
2022/03/02 06:31:01;;;;;;;17.25;7.97;;;1.20;99.90;;;;;;4808071;29;20059;-72
2022/03/02 06:33:26;;;;;;;20.10;8.25;;;1.30;99.90;;;;;;4808173;29;20372;-74
2022/03/02 06:35:52;;;;;;;20.73;8.68;;;1.30;99.90;;;;;;4807860;29;20487;-76
2022/03/02 06:38:19;;;;;;;23.90;9.50;;;1.20;99.90;;;;;;4808037;29;20054;-77
2022/03/02 06:41:11;;;;;;;21.40;9.10;;;1.30;99.90;;;;;;4791686;29;20109;-76
2022/03/02 06:44:04;;;;;;;17.67;7.90;;;1.30;99.90;;;;;;4808054;29;20051;-78
2022/03/02 06:46:39;;;;;;;18.70;7.53;;;1.40;99.90;;;;;;4807703;29;20047;-79
2022/03/02 06:49:16;;;;;;;17.45;7.07;;;1.40;99.90;;;;;;4807476;29;20407;-74
2022/03/02 06:51:43;;;;;;;15.95;6.93;;;1.40;99.90;;;;;;4807555;29;20530;-80
2022/03/02 06:54:11;;;;;;;28.88;11.57;;;0.70;99.90;;;;;;4808170;29;20055;-78
2022/03/02 06:56:45;;;;;;;30.15;12.45;;;1.40;99.90;;;;;;4791554;29;20115;-77
2022/03/02 06:59:13;;;;;;;29.05;11.80;;;1.40;99.90;;;;;;4807450;29;20604;-80
2022/03/02 07:01:42;;;;;;;31.10;11.90;;;1.60;99.90;;;;;;4807944;29;20103;-78
2022/03/02 07:04:13;;;;;;;31.63;13.45;;;1.50;99.90;;;;;;4807682;29;20055;-77
2022/03/02 07:06:38;;;;;;;36.78;12.98;;;1.50;99.90;;;;;;4807737;29;20042;-89
2022/03/02 07:09:05;;;;;;;28.65;13.18;;;1.50;99.90;;;;;;4807744;29;20049;-88
2022/03/02 07:11:33;;;;;;;35.10;13.40;;;1.50;99.90;;;;;;4788193;29;20042;-79
2022/03/02 07:13:59;;;;;;;33.60;13.52;;;1.60;99.90;;;;;;4806678;29;20438;-80
2022/03/02 07:16:25;;;;;;;28.75;12.82;;;1.60;99.90;;;;;;4807611;29;20472;-79
2022/03/02 07:18:53;;;;;;;30.27;13.32;;;1.60;99.90;;;;;;4807835;29;20134;-76
2022/03/02 07:21:25;;;;;;;30.67;11.25;;;2.70;99.90;;;;;;4807966;29;20042;-76
2022/03/02 07:23:55;;;;;;;30.27;12.43;;;1.70;99.90;;;;;;4791301;29;20058;-88
2022/03/02 07:26:23;;;;;;;37.85;13.60;;;1.70;99.90;;;;;;4807415;29;20046;-89
2022/03/02 07:28:49;;;;;;;38.20;16.55;;;1.80;99.90;;;;;;4880083;24;20065;-88
2022/03/02 07:31:18;;;;;;;38.20;16.13;;;1.80;99.90;;;;;;4843772;29;20049;-73
2022/03/02 07:33:46;;;;;;;35.67;17.00;;;2.00;99.90;;;;;;4826697;29;20058;-85
2022/03/02 07:36:12;;;;;;;40.67;17.65;;;1.90;99.90;;;;;;4827081;29;20060;-75
2022/03/02 07:38:38;;;;;;;36.78;16.23;;;2.00;99.90;;;;;;4827156;29;20081;-74
2022/03/02 07:41:09;;;;;;;34.42;16.20;;;2.00;99.90;;;;;;4842075;29;20066;-76
2022/03/02 07:43:39;;;;;;;33.83;16.33;;;2.10;99.90;;;;;;4842069;29;20547;-85
2022/03/02 07:46:10;;;;;;;33.13;15.77;;;2.20;99.90;;;;;;4843466;29;20042;-85
2022/03/02 07:48:38;;;;;;;33.95;15.43;;;2.30;99.90;;;;;;4842926;29;20402;-86
2022/03/02 07:51:07;;;;;;;46.80;18.83;;;2.30;99.90;;;;;;4843457;29;20138;-83
2022/03/02 07:53:39;;;;;;;34.53;17.15;;;2.40;99.90;;;;;;4843061;29;20069;-80
2022/03/02 07:56:05;;;;;;;34.60;15.40;;;2.50;99.90;;;;;;4838507;29;20045;-80
2022/03/02 07:58:32;;;;;;;34.30;15.95;;;2.50;99.90;;;;;;4842694;29;20132;-79
2022/03/02 08:01:00;;;;;;;36.00;15.50;;;3.00;99.90;;;;;;4842689;29;20489;-80
2022/03/02 08:03:30;;;;;;;31.48;14.70;;;2.70;99.90;;;;;;4841783;29;20081;-76
2022/03/02 08:06:00;;;;;;;41.72;16.38;;;3.10;99.90;;;;;;4842624;29;20493;-76
2022/03/02 08:08:40;;;;;;;39.63;15.15;;;2.80;99.90;;;;;;4841969;29;20044;-75
2022/03/02 08:11:06;;;;;;;34.47;16.33;;;2.90;99.90;;;;;;4842468;29;20076;-73
2022/03/02 08:13:34;;;;;;;33.45;16.17;;;2.90;99.90;;;;;;4841786;29;20049;-74
2022/03/02 08:16:01;;;;;;;35.85;15.70;;;3.00;99.90;;;;;;4842331;29;20401;-76
2022/03/02 08:18:27;;;;;;;35.25;15.82;;;3.10;99.90;;;;;;4820334;24;20059;-74
2022/03/02 08:20:57;;;;;;;42.20;17.52;;;3.20;99.90;;;;;;4805516;29;20134;-74
2022/03/02 08:23:27;;;;;;;35.55;15.60;;;3.30;99.90;;;;;;4779331;29;20072;-72
2022/03/02 08:25:54;;;;;;;35.30;15.73;;;3.50;99.90;;;;;;4799464;29;20407;-72
2022/03/02 08:28:24;;;;;;;39.00;15.55;;;3.50;99.90;;;;;;4798185;29;20065;-73
2022/03/02 08:30:51;;;;;;;36.03;17.27;;;3.60;99.90;;;;;;4798525;29;20062;-73
2022/03/02 08:33:29;;;;;;;37.38;16.52;;;3.60;99.90;;;;;;4798323;29;20042;-74
2022/03/02 08:35:57;;;;;;;35.50;16.75;;;3.70;99.90;;;;;;4800438;29;20051;-73
2022/03/02 08:38:25;;;;;;;37.83;16.65;;;3.80;99.90;;;;;;4797289;29;20082;-73
2022/03/02 08:40:50;;;;;;;36.63;17.17;;;3.90;99.90;;;;;;4797071;29;20039;-72
2022/03/02 08:43:17;;;;;;;40.58;18.10;;;3.90;99.90;;;;;;4796488;29;20060;-71
2022/03/02 08:45:46;;;;;;;38.22;18.08;;;3.90;99.90;;;;;;4797136;29;20113;-75
2022/03/02 08:48:18;;;;;;;40.70;18.45;;;3.90;99.90;;;;;;4796762;29;20055;-77
2022/03/02 08:50:45;;;;;;;36.08;17.48;;;3.90;99.90;;;;;;4796176;29;20117;-79
2022/03/02 08:53:14;;;;;;;35.72;15.75;;;3.90;99.90;;;;;;4792786;29;20433;-76
2022/03/02 08:55:40;;;;;;;39.25;17.70;;;3.90;99.90;;;;;;4791947;29;20054;-78
2022/03/02 08:58:08;;;;;;;34.00;16.02;;;3.90;99.90;;;;;;4791470;29;20093;-78
2022/03/02 09:00:34;;;;;;;38.15;16.65;;;3.90;99.90;;;;;;4811385;29;20066;-77
2022/03/02 09:03:19;;;;;;;40.00;17.20;;;4.00;99.90;;;;;;4811989;29;20043;-80
2022/03/02 09:05:47;;;;;;;40.70;17.30;;;4.00;99.90;;;;;;4804338;29;20117;-78
2022/03/02 09:08:13;;;;;;;31.55;15.25;;;4.10;99.90;;;;;;4786399;29;20046;-79
2022/03/02 09:10:39;;;;;;;35.65;17.02;;;4.20;99.90;;;;;;4818129;29;20050;-79
2022/03/02 09:13:05;;;;;;;35.30;16.65;;;4.40;99.90;;;;;;4810119;29;20053;-80
2022/03/02 09:15:34;;;;;;;39.58;18.75;;;4.50;99.90;;;;;;4812778;29;20140;-76
2022/03/02 09:18:00;;;;;;;32.15;15.38;;;4.80;99.90;;;;;;4783475;29;20138;-77
2022/03/02 09:20:26;;;;;;;37.53;16.40;;;5.00;99.90;;;;;;4805168;29;20133;-78
2022/03/02 09:22:53;;;;;;;38.75;14.65;;;5.20;99.90;;;;;;4798983;29;20134;-76
2022/03/02 09:25:19;;;;;;;29.02;13.18;;;5.90;99.90;;;;;;4783013;29;20062;-76
2022/03/02 09:27:46;;;;;;;30.95;13.68;;;5.60;99.90;;;;;;4800902;29;20053;-76
2022/03/02 09:30:12;;;;;;;28.80;13.55;;;5.60;99.90;;;;;;4783329;29;20065;-78
2022/03/02 09:32:42;;;;;;;31.15;13.07;;;5.70;99.90;;;;;;4783812;29;20063;-76
2022/03/02 09:35:19;;;;;;;29.77;14.10;;;5.70;99.90;;;;;;4782128;29;20057;-75
2022/03/02 09:37:54;;;;;;;30.25;13.32;;;5.80;99.90;;;;;;4800581;29;20607;-77
2022/03/02 09:40:28;;;;;;;30.48;12.27;;;5.80;99.90;;;;;;4800857;29;20035;-76
2022/03/02 09:43:07;;;;;;;28.60;11.75;;;5.80;99.90;;;;;;4801518;29;20054;-80
2022/03/02 09:45:34;;;;;;;25.58;11.55;;;5.80;99.90;;;;;;4800232;29;20539;-78
2022/03/02 09:48:03;;;;;;;29.23;13.38;;;5.80;99.90;;;;;;4804253;29;20046;-74
2022/03/02 09:50:33;;;;;;;27.00;11.48;;;6.00;99.90;;;;;;4802408;29;20535;-75
2022/03/02 09:53:02;;;;;;;28.40;11.35;;;6.10;99.90;;;;;;4800272;29;20057;-75
2022/03/02 09:55:28;;;;;;;25.63;12.27;;;6.30;99.90;;;;;;4801118;29;20406;-78
2022/03/02 09:57:59;;;;;;;29.27;11.25;;;6.40;99.90;;;;;;4788866;29;20496;-76
2022/03/02 10:00:27;;;;;;;23.92;10.35;;;6.50;99.90;;;;;;4788183;29;20507;-77
2022/03/02 10:02:57;;;;;;;30.55;11.10;;;6.60;99.90;;;;;;4782477;29;20228;-77
2022/03/02 10:05:26;;;;;;;26.00;10.65;;;6.80;99.90;;;;;;4783432;29;20059;-79
2022/03/02 10:07:54;;;;;;;24.48;10.70;;;6.80;99.90;;;;;;4802291;29;20046;-78
2022/03/02 10:10:24;;;;;;;25.90;10.38;;;6.80;99.90;;;;;;4783555;29;20115;-76
2022/03/02 10:12:51;;;;;;;28.73;11.15;;;6.70;99.90;;;;;;4799138;29;20054;-77
2022/03/02 10:15:18;;;;;;;28.95;11.10;;;6.70;99.90;;;;;;4799380;29;20115;-75
2022/03/02 10:17:46;;;;;;;24.65;10.45;;;6.70;99.90;;;;;;4801022;29;20125;-75
2022/03/02 10:20:20;;;;;;;27.65;12.35;;;6.70;99.90;;;;;;4800350;29;20411;-77
2022/03/02 10:22:46;;;;;;;25.00;10.52;;;6.80;99.90;;;;;;4800172;29;20046;-78
2022/03/02 10:25:15;;;;;;;24.40;12.18;;;6.80;99.90;;;;;;4787527;29;20077;-78
2022/03/02 10:28:02;;;;;;;28.48;11.75;;;7.40;99.90;;;;;;4804588;29;20121;-77
2022/03/02 10:30:35;;;;;;;26.90;11.05;;;6.80;99.90;;;;;;4804086;29;20057;-78
2022/03/02 10:33:36;;;;;;;24.63;10.88;;;6.90;99.90;;;;;;4789454;29;20073;-76
2022/03/02 10:36:08;;;;;;;22.80;10.05;;;7.20;99.90;;;;;;4813054;29;20051;-77
2022/03/02 10:38:58;;;;;;;26.77;10.73;;;7.00;99.90;;;;;;4786771;29;20094;-77
2022/03/02 10:41:26;;;;;;;29.15;10.07;;;7.00;99.90;;;;;;4804659;29;20153;-79
2022/03/02 10:44:30;;;;;;;26.92;10.80;;;7.00;99.90;;;;;;4801745;29;20049;-76
2022/03/02 10:47:02;;;;;;;25.02;11.63;;;7.10;99.90;;;;;;4787896;29;20086;-77
2022/03/02 10:49:29;;;;;;;25.50;10.60;;;7.10;99.90;;;;;;4803307;29;20047;-74
2022/03/02 10:51:57;;;;;;;24.02;10.73;;;7.30;99.90;;;;;;4788783;29;20059;-78
2022/03/02 10:54:26;;;;;;;26.10;10.82;;;7.70;99.90;;;;;;4806490;29;20517;-79
2022/03/02 10:56:53;;;;;;;24.80;10.18;;;7.40;99.90;;;;;;4812205;29;20116;-78
2022/03/02 10:59:23;;;;;;;24.25;11.40;;;7.50;99.90;;;;;;4813409;29;20552;-78
2022/03/02 11:01:50;;;;;;;25.08;9.98;;;7.50;99.90;;;;;;4805855;29;20056;-77
2022/03/02 11:04:20;;;;;;;23.60;9.70;;;7.60;99.90;;;;;;4808406;29;20050;-77
2022/03/02 11:06:46;;;;;;;25.77;10.57;;;7.60;99.90;;;;;;4789592;29;20065;-77
2022/03/02 11:09:13;;;;;;;23.25;9.30;;;7.70;99.90;;;;;;4811630;29;20070;-77
2022/03/02 11:11:41;;;;;;;24.65;10.68;;;7.70;99.90;;;;;;4813222;29;20041;-78
2022/03/02 11:14:08;;;;;;;24.52;10.40;;;7.70;99.90;;;;;;4804035;29;20058;-77
2022/03/02 11:16:35;;;;;;;21.30;9.48;;;7.80;99.90;;;;;;4805336;29;20054;-77
2022/03/02 11:19:12;;;;;;;24.67;9.88;;;7.80;99.90;;;;;;4802934;29;20141;-80
2022/03/02 11:21:40;;;;;;;25.65;10.23;;;7.90;99.90;;;;;;4804889;29;20058;-80
2022/03/02 11:24:08;;;;;;;22.42;10.27;;;8.00;99.90;;;;;;4773988;29;20065;-78
2022/03/02 11:26:38;;;;;;;22.88;8.88;;;8.20;99.90;;;;;;4787145;29;20141;-78
2022/03/02 11:29:14;;;;;;;21.77;10.15;;;8.10;99.90;;;;;;4788524;29;20556;-80
2022/03/02 11:31:46;;;;;;;21.73;9.73;;;8.50;99.90;;;;;;4787009;29;20059;-77
2022/03/02 11:34:24;;;;;;;21.43;8.57;;;8.20;99.90;;;;;;4805236;29;20170;-81
2022/03/02 11:36:52;;;;;;;19.63;8.20;;;8.40;99.90;;;;;;4807836;29;20058;-78
2022/03/02 11:39:21;;;;;;;21.35;9.13;;;8.50;99.90;;;;;;4787427;29;20070;-80
2022/03/02 11:41:51;;;;;;;24.90;8.55;;;8.50;99.90;;;;;;4805393;29;20290;-77
2022/03/02 11:44:30;;;;;;;22.48;8.88;;;8.90;99.90;;;;;;4800327;29;20051;-81
2022/03/02 11:46:56;;;;;;;19.77;8.68;;;8.50;99.90;;;;;;4787393;29;20087;-81
2022/03/02 11:49:39;;;;;;;22.23;10.07;;;8.50;99.90;;;;;;4803450;29;20057;-79
2022/03/02 11:52:08;;;;;;;21.90;9.20;;;8.50;99.90;;;;;;4802170;29;20508;-73
2022/03/02 11:54:45;;;;;;;20.45;9.07;;;8.60;99.90;;;;;;4783342;29;20106;-70
2022/03/02 11:57:10;;;;;;;23.60;10.07;;;8.70;99.90;;;;;;4784841;29;20130;-69
2022/03/02 11:59:38;;;;;;;22.42;9.48;;;8.80;99.90;;;;;;4801897;29;20146;-69
2022/03/02 12:02:21;;;;;;;19.20;8.95;;;8.90;99.90;;;;;;4804183;29;20060;-72
2022/03/02 12:04:58;;;;;;;24.98;9.70;;;8.80;99.90;;;;;;4779982;29;20381;-70
2022/03/02 12:07:24;;;;;;;25.10;11.20;;;8.80;99.90;;;;;;4805713;29;20073;-70
2022/03/02 12:09:50;;;;;;;27.35;12.68;;;8.80;99.90;;;;;;4803447;29;20081;-72
2022/03/02 12:12:20;;;;;;;24.75;14.00;;;8.80;99.90;;;;;;4820156;29;20474;-72
2022/03/02 12:14:59;;;;;;;26.60;10.20;;;8.80;99.90;;;;;;4815673;29;20125;-71
2022/03/02 12:17:33;;;;;;;21.77;9.60;;;8.90;99.90;;;;;;4814604;29;20058;-73
2022/03/02 12:20:06;;;;;;;23.77;10.23;;;9.20;99.90;;;;;;4790778;29;20119;-70
2022/03/02 12:22:34;;;;;;;18.02;7.90;;;9.00;99.90;;;;;;4784360;29;20062;-70
2022/03/02 12:25:00;;;;;;;25.88;9.50;;;9.20;99.90;;;;;;4793529;29;20078;-70
2022/03/02 12:27:25;;;;;;;18.40;8.55;;;9.10;99.90;;;;;;4814922;29;20046;-70
2022/03/02 12:29:54;;;;;;;21.80;9.00;;;9.10;99.90;;;;;;4788945;29;20452;-69
2022/03/02 12:32:21;;;;;;;18.27;7.63;;;9.20;99.90;;;;;;4781712;29;20657;-72
2022/03/02 12:34:51;;;;;;;18.73;8.23;;;9.20;99.90;;;;;;4785041;29;20528;-69
2022/03/02 12:37:19;;;;;;;19.48;8.65;;;9.20;99.90;;;;;;4804104;29;20046;-70
2022/03/02 12:39:47;;;;;;;22.55;8.70;;;9.30;99.90;;;;;;4786402;29;20543;-71
2022/03/02 12:42:14;;;;;;;21.67;8.25;;;9.40;99.90;;;;;;4802511;29;20449;-73